Time,TemperatureF,DewpointF,PressureIn,WindDirection,WindDirectionDegrees,WindSpeedMPH,WindSpeedGustMPH,Humidity,HourlyPrecipIn,Conditions,Clouds,dailyrainin,SolarRadiationWatts/m^2,SoftwareType,DateUTC
2013-08-13 00:02:00,56.0,51.2,30.00,NNE,22,0.0,0.0,84,0.00,,,0.00,0,Wunderground v.1.15,2013-08-13 07:02:00,
2013-08-13 00:07:00,55.9,51.5,30.00,NNE,22,0.0,0.0,85,0.00,,,0.00,0,Wunderground v.1.15,2013-08-13 07:07:00,
2013-08-13 00:12:00,55.8,51.4,30.00,NNE,22,0.0,0.0,85,0.00,,,0.00,0,Wunderground v.1.15,2013-08-13 07:12:00,
2013-08-13 00:18:00,55.8,51.4,30.00,NNE,22,0.0,0.0,85,0.00,,,0.00,0,Wunderground v.1.15,2013-08-13 07:18:00,
2013-08-13 00:23:00,55.8,51.4,30.00,NNE,22,0.0,0.0,85,0.00,,,0.00,0,Wunderground v.1.15,2013-08-13 07:23:00,
2013-08-13 00:28:00,55.8,51.4,30.00,NNE,22,0.0,0.0,85,0.00,,,0.00,0,Wunderground v.1.15,2013-08-13 07:28:00,
2013-08-13 00:33:00,55.6,51.2,29.99,NNE,22,0.0,0.0,85,0.00,,,0.00,0,Wunderground v.1.15,2013-08-13 07:33:00,
2013-08-13 00:39:00,55.3,51.2,29.99,NNE,22,0.0,0.0,86,0.00,,,0.00,0,Wunderground v.1.15,2013-08-13 07:39:00,
2013-08-13 00:44:00,54.9,51.1,29.99,NNE,22,0.0,0.0,87,0.00,,,0.00,0,Wunderground v.1.15,2013-08-13 07:44:00,
2013-08-13 00:50:00,54.7,50.9,29.99,NNE,22,0.0,0.0,87,0.00,,,0.00,0,Wunderground v.1.15,2013-08-13 07:50:00,
2013-08-13 00:55:00,54.6,51.1,29.99,NNE,22,0.0,0.0,88,0.00,,,0.00,0,Wunderground v.1.15,2013-08-13 07:55:00,
2013-08-13 01:05:00,54.4,50.9,29.99,NNE,22,0.0,0.0,88,0.00,,,0.00,0,Wunderground v.1.15,2013-08-13 08:05:00,
2013-08-13 01:10:00,54.4,51.5,29.99,NNE,22,0.0,0.0,90,0.00,,,0.00,0,Wunderground v.1.15,2013-08-13 08:10:00,
2013-08-13 01:16:00,54.4,51.5,29.99,NNE,22,0.0,0.0,90,0.00,,,0.00,0,Wunderground v.1.15,2013-08-13 08:16:00,
2013-08-13 01:22:00,54.5,51.9,29.99,NNE,22,0.0,0.0,91,0.00,,,0.00,0,Wunderground v.1.15,2013-08-13 08:22:00,
2013-08-13 01:27:00,54.6,52.0,29.99,NNE,22,0.0,0.0,91,0.00,,,0.00,0,Wunderground v.1.15,2013-08-13 08:27:00,
2013-08-13 01:33:00,54.6,52.0,29.99,NNE,22,0.0,0.0,91,0.00,,,0.00,0,Wunderground v.1.15,2013-08-13 08:33:00,
2013-08-13 01:38:00,54.6,52.0,29.99,NNE,22,0.0,0.0,91,0.00,,,0.00,0,Wunderground v.1.15,2013-08-13 08:38:00,
2013-08-13 01:43:00,54.6,52.0,29.99,NNE,22,0.0,0.0,91,0.00,,,0.00,0,Wunderground v.1.15,2013-08-13 08:43:00,
2013-08-13 01:49:00,54.6,52.0,29.99,NNE,22,0.0,0.0,91,0.00,,,0.00,0,Wunderground v.1.15,2013-08-13 08:49:00,
2013-08-13 01:55:00,54.6,52.0,29.99,NNE,22,0.0,0.0,91,0.00,,,0.00,0,Wunderground v.1.15,2013-08-13 08:55:00,
2013-08-13 02:00:00,54.5,51.9,29.99,NNE,22,0.0,0.0,91,0.00,,,0.00,0,Wunderground v.1.15,2013-08-13 09:00:00,
2013-08-13 02:05:00,54.4,51.8,29.99,NNE,22,0.0,0.0,91,0.00,,,0.00,0,Wunderground v.1.15,2013-08-13 09:05:00,
2013-08-13 02:10:00,54.5,52.2,29.99,NNE,22,0.0,0.0,92,0.00,,,0.00,0,Wunderground v.1.15,2013-08-13 09:10:00,
2013-08-13 02:16:00,54.5,52.2,29.99,NNE,22,0.0,0.0,92,0.00,,,0.00,0,Wunderground v.1.15,2013-08-13 09:16:00,
2013-08-13 02:21:00,54.5,52.2,29.99,NNE,22,0.0,0.0,92,0.00,,,0.00,0,Wunderground v.1.15,2013-08-13 09:21:00,
2013-08-13 02:27:00,54.5,52.2,29.99,NNE,22,0.0,0.0,92,0.00,,,0.00,0,Wunderground v.1.15,2013-08-13 09:27:00,
2013-08-13 02:32:00,54.5,52.2,29.99,NNE,22,0.0,0.0,92,0.00,,,0.00,0,Wunderground v.1.15,2013-08-13 09:32:00,
2013-08-13 02:37:00,54.5,52.5,29.99,NNE,22,0.0,0.0,93,0.00,,,0.00,0,Wunderground v.1.15,2013-08-13 09:37:00,
2013-08-13 02:43:00,54.5,52.5,29.99,NNE,22,0.0,0.0,93,0.00,,,0.00,0,Wunderground v.1.15,2013-08-13 09:43:00,
2013-08-13 02:48:00,54.5,52.5,29.99,NNE,22,0.0,0.0,93,0.00,,,0.00,0,Wunderground v.1.15,2013-08-13 09:48:00,
2013-08-13 02:55:00,54.5,52.5,29.99,NNE,22,0.0,0.0,93,0.00,,,0.00,0,Wunderground v.1.15,2013-08-13 09:55:00,
2013-08-13 03:00:00,54.4,52.4,29.99,NNE,22,0.0,0.0,93,0.00,,,0.00,0,Wunderground v.1.15,2013-08-13 10:00:00,
2013-08-13 03:05:00,54.4,52.4,29.99,NNE,22,0.0,0.0,93,0.00,,,0.00,0,Wunderground v.1.15,2013-08-13 10:05:00,
2013-08-13 03:11:00,54.4,52.4,29.98,NNE,22,0.0,0.0,93,0.00,,,0.00,0,Wunderground v.1.15,2013-08-13 10:11:00,
2013-08-13 03:16:00,54.4,52.4,29.98,NNE,22,0.0,0.0,93,0.00,,,0.00,0,Wunderground v.1.15,2013-08-13 10:16:00,
2013-08-13 03:21:00,54.4,52.4,29.98,NNE,22,0.0,0.0,93,0.00,,,0.00,0,Wunderground v.1.15,2013-08-13 10:21:00,
2013-08-13 03:27:00,54.4,52.4,29.98,NNE,22,0.0,0.0,93,0.00,,,0.00,0,Wunderground v.1.15,2013-08-13 10:27:00,
2013-08-13 03:32:00,54.4,52.4,29.98,NNE,22,0.0,0.0,93,0.00,,,0.00,0,Wunderground v.1.15,2013-08-13 10:32:00,
2013-08-13 03:37:00,54.4,52.4,29.98,NNE,22,0.0,0.0,93,0.00,,,0.00,0,Wunderground v.1.15,2013-08-13 10:37:00,
2013-08-13 03:43:00,54.4,52.4,29.98,NNE,22,0.0,0.0,93,0.00,,,0.00,0,Wunderground v.1.15,2013-08-13 10:43:00,
2013-08-13 03:48:00,54.4,52.7,29.98,NNE,22,0.0,0.0,94,0.00,,,0.00,0,Wunderground v.1.15,2013-08-13 10:48:00,
2013-08-13 03:54:00,54.4,52.7,29.98,NNE,22,0.0,0.0,94,0.00,,,0.00,0,Wunderground v.1.15,2013-08-13 10:54:00,
2013-08-13 03:59:00,54.4,52.7,29.98,NNE,22,0.0,0.0,94,0.00,,,0.00,0,Wunderground v.1.15,2013-08-13 10:59:00,
2013-08-13 04:04:00,54.4,52.7,29.98,NNE,22,0.0,0.0,94,0.00,,,0.00,0,Wunderground v.1.15,2013-08-13 11:04:00,
2013-08-13 04:09:00,54.4,52.7,29.98,NNE,22,0.0,0.0,94,0.00,,,0.00,0,Wunderground v.1.15,2013-08-13 11:09:00,
2013-08-13 04:15:00,54.4,52.7,29.98,NNE,21,0.0,0.0,94,0.00,,,0.00,0,Wunderground v.1.15,2013-08-13 11:15:00,
2013-08-13 04:20:00,54.2,52.5,29.97,NNE,22,0.0,0.0,94,0.00,,,0.00,0,Wunderground v.1.15,2013-08-13 11:20:00,
2013-08-13 04:25:00,54.2,52.5,29.97,NNE,22,0.0,0.0,94,0.00,,,0.00,0,Wunderground v.1.15,2013-08-13 11:25:00,
2013-08-13 04:31:00,54.2,52.5,29.97,NNE,22,0.0,0.0,94,0.00,,,0.00,0,Wunderground v.1.15,2013-08-13 11:31:00,
2013-08-13 04:36:00,54.1,52.4,29.97,NNE,22,0.0,0.0,94,0.00,,,0.00,0,Wunderground v.1.15,2013-08-13 11:36:00,
2013-08-13 04:41:00,54.1,52.4,29.97,NNE,22,0.0,0.0,94,0.00,,,0.00,0,Wunderground v.1.15,2013-08-13 11:41:00,
2013-08-13 04:47:00,54.1,52.4,29.97,NNE,21,0.0,0.0,94,0.00,,,0.00,0,Wunderground v.1.15,2013-08-13 11:47:00,
2013-08-13 04:48:00,54.1,52.4,29.97,NNE,22,0.0,0.0,94,0.00,,,0.00,0,Wunderground v.1.15,2013-08-13 11:48:00,
2013-08-13 04:54:00,54.1,52.4,29.97,NNE,22,0.0,0.0,94,0.00,,,0.00,0,Wunderground v.1.15,2013-08-13 11:54:00,
2013-08-13 04:59:00,54.1,52.4,29.97,NNE,22,0.0,0.0,94,0.00,,,0.00,0,Wunderground v.1.15,2013-08-13 11:59:00,
2013-08-13 05:04:00,54.1,52.4,29.97,NNE,22,0.0,0.0,94,0.00,,,0.00,0,Wunderground v.1.15,2013-08-13 12:04:00,
2013-08-13 05:10:00,54.0,52.3,29.97,NNE,22,0.0,0.0,94,0.00,,,0.00,0,Wunderground v.1.15,2013-08-13 12:10:00,
2013-08-13 05:15:00,53.9,52.2,29.97,NNE,22,0.0,0.0,94,0.00,,,0.00,0,Wunderground v.1.15,2013-08-13 12:15:00,
2013-08-13 05:21:00,53.8,52.1,29.97,NNE,22,0.0,0.0,94,0.00,,,0.00,0,Wunderground v.1.15,2013-08-13 12:21:00,
2013-08-13 05:26:00,53.7,52.0,29.97,NNE,22,0.0,0.0,94,0.00,,,0.00,0,Wunderground v.1.15,2013-08-13 12:26:00,
2013-08-13 05:32:00,53.8,52.4,29.97,NNE,22,0.0,0.0,95,0.00,,,0.00,0,Wunderground v.1.15,2013-08-13 12:32:00,
2013-08-13 05:37:00,53.9,52.5,29.97,NNE,17,0.0,0.0,95,0.00,,,0.00,0,Wunderground v.1.15,2013-08-13 12:37:00,
2013-08-13 05:42:00,53.9,52.5,29.97,North,355,0.0,0.0,95,0.00,,,0.00,0,Wunderground v.1.15,2013-08-13 12:42:00,
2013-08-13 05:48:00,54.0,52.6,29.97,North,355,0.0,0.0,95,0.00,,,0.00,0,Wunderground v.1.15,2013-08-13 12:48:00,
2013-08-13 05:53:00,54.0,52.6,29.97,North,355,0.0,0.0,95,0.00,,,0.00,0,Wunderground v.1.15,2013-08-13 12:53:00,
2013-08-13 05:59:00,53.9,52.5,29.98,North,355,0.0,0.0,95,0.00,,,0.00,0,Wunderground v.1.15,2013-08-13 12:59:00,
2013-08-13 06:04:00,54.0,52.6,29.98,North,355,0.0,0.0,95,0.00,,,0.00,0,Wunderground v.1.15,2013-08-13 13:04:00,
2013-08-13 06:09:00,53.9,52.5,29.98,North,355,0.0,0.0,95,0.00,,,0.00,0,Wunderground v.1.15,2013-08-13 13:09:00,
2013-08-13 06:15:00,54.0,52.6,29.98,North,355,0.0,0.0,95,0.00,,,0.00,0,Wunderground v.1.15,2013-08-13 13:15:00,
2013-08-13 06:20:00,54.0,52.6,29.98,North,355,0.0,0.0,95,0.00,,,0.00,0,Wunderground v.1.15,2013-08-13 13:20:00,
2013-08-13 06:26:00,54.0,52.6,29.98,North,355,0.0,0.0,95,0.00,,,0.00,5,Wunderground v.1.15,2013-08-13 13:26:00,
2013-08-13 06:31:00,54.0,52.6,29.98,North,355,0.0,0.0,95,0.00,,,0.00,9,Wunderground v.1.15,2013-08-13 13:31:00,
2013-08-13 06:37:00,54.0,52.6,29.98,North,355,0.0,0.0,95,0.00,,,0.00,11,Wunderground v.1.15,2013-08-13 13:37:00,
2013-08-13 06:42:00,54.0,52.6,29.98,North,355,0.0,0.0,95,0.00,,,0.00,12,Wunderground v.1.15,2013-08-13 13:42:00,
2013-08-13 06:47:00,54.1,52.7,29.98,North,355,0.0,0.0,95,0.00,,,0.00,16,Wunderground v.1.15,2013-08-13 13:47:00,
2013-08-13 06:53:00,54.1,52.7,29.98,North,355,0.0,0.0,95,0.00,,,0.00,19,Wunderground v.1.15,2013-08-13 13:53:00,
2013-08-13 06:58:00,54.1,52.7,29.98,North,355,0.0,0.0,95,0.00,,,0.00,28,Wunderground v.1.15,2013-08-13 13:58:00,
2013-08-13 07:04:00,54.2,52.8,29.98,WSW,253,1.0,4.0,95,0.00,,,0.00,44,Wunderground v.1.15,2013-08-13 14:04:00,
2013-08-13 07:09:00,54.4,53.0,29.99,WSW,244,3.0,4.0,95,0.00,,,0.00,40,Wunderground v.1.15,2013-08-13 14:09:00,
2013-08-13 07:15:00,54.5,53.1,29.99,WSW,244,3.0,5.0,95,0.00,,,0.00,54,Wunderground v.1.15,2013-08-13 14:15:00,
2013-08-13 07:21:00,54.6,53.2,29.99,WSW,244,1.0,1.0,95,0.00,,,0.00,67,Wunderground v.1.15,2013-08-13 14:21:00,
2013-08-13 07:28:00,54.9,53.5,29.99,WSW,245,2.0,5.0,95,0.00,,,0.00,84,Wunderground v.1.15,2013-08-13 14:28:00,
2013-08-13 07:33:00,55.1,53.7,29.99,WSW,244,3.0,3.0,95,0.00,,,0.00,100,Wunderground v.1.15,2013-08-13 14:33:00,
2013-08-13 07:38:00,55.3,54.2,29.99,WSW,244,1.0,3.0,96,0.00,,,0.00,118,Wunderground v.1.15,2013-08-13 14:38:00,
2013-08-13 07:44:00,55.6,54.2,29.99,WSW,244,0.0,1.0,95,0.00,,,0.00,137,Wunderground v.1.15,2013-08-13 14:44:00,
2013-08-13 07:49:00,55.8,54.4,29.99,WSW,244,0.0,1.0,95,0.00,,,0.00,146,Wunderground v.1.15,2013-08-13 14:49:00,
2013-08-13 07:54:00,55.9,54.8,29.99,WSW,246,0.0,0.0,96,0.00,,,0.00,148,Wunderground v.1.15,2013-08-13 14:54:00,
2013-08-13 08:01:00,56.1,55.0,29.99,WSW,245,0.0,0.0,96,0.00,,,0.00,160,Wunderground v.1.15,2013-08-13 15:01:00,
2013-08-13 08:06:00,56.4,55.0,29.99,WSW,245,0.0,3.0,95,0.00,,,0.00,200,Wunderground v.1.15,2013-08-13 15:06:00,
2013-08-13 08:12:00,56.5,55.1,29.99,WSW,245,0.0,0.0,95,0.00,,,0.00,237,Wunderground v.1.15,2013-08-13 15:12:00,
2013-08-13 08:17:00,56.8,55.7,29.99,WSW,244,1.0,4.0,96,0.00,,,0.00,253,Wunderground v.1.15,2013-08-13 15:17:00,
2013-08-13 08:23:00,57.1,56.0,30.00,WSW,244,1.0,1.0,96,0.00,,,0.00,271,Wunderground v.1.15,2013-08-13 15:23:00,
2013-08-13 08:28:00,57.3,56.2,29.99,WSW,244,1.0,1.0,96,0.00,,,0.00,287,Wunderground v.1.15,2013-08-13 15:28:00,
2013-08-13 08:34:00,57.5,56.4,30.00,WSW,244,0.0,0.0,96,0.00,,,0.00,301,Wunderground v.1.15,2013-08-13 15:34:00,
2013-08-13 08:39:00,57.8,56.7,30.00,WSW,244,0.0,0.0,96,0.00,,,0.00,316,Wunderground v.1.15,2013-08-13 15:39:00,
2013-08-13 08:44:00,58.2,57.1,30.00,WSW,245,0.0,0.0,96,0.00,,,0.00,332,Wunderground v.1.15,2013-08-13 15:44:00,
2013-08-13 08:49:00,58.9,57.8,30.00,WSW,244,0.0,0.0,96,0.00,,,0.00,343,Wunderground v.1.15,2013-08-13 15:49:00,
2013-08-13 08:55:00,59.4,58.3,30.00,WSW,245,0.0,0.0,96,0.00,,,0.00,352,Wunderground v.1.15,2013-08-13 15:55:00,
2013-08-13 09:01:00,59.8,58.4,30.00,WSW,244,0.0,0.0,95,0.00,,,0.00,357,Wunderground v.1.15,2013-08-13 16:01:00,
2013-08-13 09:06:00,60.3,58.9,30.00,WSW,245,0.0,0.0,95,0.00,,,0.00,359,Wunderground v.1.15,2013-08-13 16:06:00,
2013-08-13 09:11:00,60.6,58.9,30.00,WSW,251,0.0,0.0,94,0.00,,,0.00,360,Wunderground v.1.15,2013-08-13 16:11:00,
2013-08-13 09:17:00,61.0,59.0,30.00,WSW,251,0.0,0.0,93,0.00,,,0.00,366,Wunderground v.1.15,2013-08-13 16:17:00,
2013-08-13 09:22:00,61.7,59.4,30.00,WSW,254,0.0,0.0,92,0.00,,,0.00,378,Wunderground v.1.15,2013-08-13 16:22:00,
2013-08-13 09:28:00,62.1,59.1,30.00,WSW,254,0.0,0.0,90,0.00,,,0.00,383,Wunderground v.1.15,2013-08-13 16:28:00,
2013-08-13 09:34:00,62.9,59.3,30.00,WSW,254,0.0,0.0,88,0.00,,,0.00,392,Wunderground v.1.15,2013-08-13 16:34:00,
2013-08-13 09:39:00,63.6,59.3,30.00,WSW,255,0.0,0.0,86,0.00,,,0.00,404,Wunderground v.1.15,2013-08-13 16:39:00,
2013-08-13 09:44:00,64.3,59.4,30.00,WSW,255,0.0,0.0,84,0.00,,,0.00,424,Wunderground v.1.15,2013-08-13 16:44:00,
2013-08-13 09:50:00,64.9,58.9,30.00,WSW,258,0.0,0.0,81,0.00,,,0.00,454,Wunderground v.1.15,2013-08-13 16:50:00,
2013-08-13 09:55:00,65.4,59.1,30.00,West,265,0.0,0.0,80,0.00,,,0.00,494,Wunderground v.1.15,2013-08-13 16:55:00,
2013-08-13 10:00:00,65.9,59.2,30.00,North,351,0.0,0.0,79,0.00,,,0.00,526,Wunderground v.1.15,2013-08-13 17:00:00,
2013-08-13 10:06:00,66.4,59.0,30.00,North,350,0.0,0.0,77,0.00,,,0.00,570,Wunderground v.1.15,2013-08-13 17:06:00,
2013-08-13 10:12:00,66.9,58.7,30.00,NNW,340,0.0,0.0,75,0.00,,,0.00,622,Wunderground v.1.15,2013-08-13 17:12:00,
2013-08-13 10:18:00,67.0,58.4,30.00,NNW,333,0.0,0.0,74,0.00,,,0.00,649,Wunderground v.1.15,2013-08-13 17:18:00,
2013-08-13 10:24:00,67.2,58.6,30.00,NNW,334,0.0,0.0,74,0.00,,,0.00,666,Wunderground v.1.15,2013-08-13 17:24:00,
2013-08-13 10:29:00,67.7,58.7,30.00,NNW,334,0.0,0.0,73,0.00,,,0.00,680,Wunderground v.1.15,2013-08-13 17:29:00,
2013-08-13 10:35:00,68.1,58.7,30.00,NNW,337,0.0,0.0,72,0.00,,,0.00,657,Wunderground v.1.15,2013-08-13 17:35:00,
2013-08-13 10:41:00,69.0,58.8,30.00,NNW,338,0.0,3.0,70,0.00,,,0.00,668,Wunderground v.1.15,2013-08-13 17:41:00,
2013-08-13 10:46:00,69.2,58.2,29.99,NW,315,0.0,3.0,68,0.00,,,0.00,705,Wunderground v.1.15,2013-08-13 17:46:00,
2013-08-13 10:52:00,69.1,57.7,30.00,NW,315,1.0,1.0,67,0.00,,,0.00,737,Wunderground v.1.15,2013-08-13 17:52:00,
2013-08-13 10:57:00,69.2,57.8,30.00,NW,319,0.0,1.0,67,0.00,,,0.00,751,Wunderground v.1.15,2013-08-13 17:57:00,
2013-08-13 11:02:00,69.7,57.8,30.00,North,349,0.0,0.0,66,0.00,,,0.00,763,Wunderground v.1.15,2013-08-13 18:02:00,
2013-08-13 11:08:00,70.1,58.2,29.99,North,349,0.0,3.0,66,0.00,,,0.00,775,Wunderground v.1.15,2013-08-13 18:08:00,
2013-08-13 11:14:00,70.7,58.4,30.00,NNW,347,0.0,0.0,65,0.00,,,0.00,789,Wunderground v.1.15,2013-08-13 18:14:00,
2013-08-13 11:19:00,71.3,58.1,29.99,North,355,1.0,5.0,63,0.00,,,0.00,798,Wunderground v.1.15,2013-08-13 18:19:00,
2013-08-13 11:24:00,71.9,58.2,29.99,NNE,18,2.0,2.0,62,0.00,,,0.00,809,Wunderground v.1.15,2013-08-13 18:24:00,
2013-08-13 11:30:00,72.2,58.0,30.00,North,11,2.0,7.0,61,0.00,,,0.00,823,Wunderground v.1.15,2013-08-13 18:30:00,
2013-08-13 11:36:00,72.6,58.4,29.99,NNE,28,3.0,4.0,61,0.00,,,0.00,831,Wunderground v.1.15,2013-08-13 18:36:00,
2013-08-13 11:41:00,72.9,58.7,30.00,NNE,30,2.0,2.0,61,0.00,,,0.00,842,Wunderground v.1.15,2013-08-13 18:41:00,
2013-08-13 11:47:00,73.6,58.9,29.99,NNE,22,2.0,3.0,60,0.00,,,0.00,854,Wunderground v.1.15,2013-08-13 18:47:00,
2013-08-13 11:52:00,73.7,58.9,29.99,NNE,27,3.0,3.0,60,0.00,,,0.00,860,Wunderground v.1.15,2013-08-13 18:52:00,
2013-08-13 11:58:00,74.0,58.8,29.99,NNE,31,3.0,8.0,59,0.00,,,0.00,868,Wunderground v.1.15,2013-08-13 18:58:00,
2013-08-13 12:03:00,73.9,59.1,29.99,NE,40,4.0,6.0,60,0.00,,,0.00,875,Wunderground v.1.15,2013-08-13 19:03:00,
2013-08-13 12:08:00,73.9,58.7,29.99,NE,42,5.0,6.0,59,0.00,,,0.00,884,Wunderground v.1.15,2013-08-13 19:08:00,
2013-08-13 12:14:00,74.0,58.8,29.99,NE,40,5.0,9.0,59,0.00,,,0.00,891,Wunderground v.1.15,2013-08-13 19:14:00,
2013-08-13 12:19:00,74.1,58.9,29.99,NNE,26,6.0,10.0,59,0.00,,,0.00,898,Wunderground v.1.15,2013-08-13 19:19:00,
2013-08-13 12:24:00,74.1,58.9,29.99,NE,36,7.0,8.0,59,0.00,,,0.00,904,Wunderground v.1.15,2013-08-13 19:24:00,
2013-08-13 12:30:00,74.2,58.0,29.99,NNE,28,7.0,9.0,57,0.00,,,0.00,909,Wunderground v.1.15,2013-08-13 19:30:00,
2013-08-13 12:35:00,74.2,57.5,29.99,NE,46,6.0,8.0,56,0.00,,,0.00,916,Wunderground v.1.15,2013-08-13 19:35:00,
2013-08-13 12:41:00,74.2,57.0,29.98,NNE,32,6.0,8.0,55,0.00,,,0.00,921,Wunderground v.1.15,2013-08-13 19:41:00,
2013-08-13 12:47:00,74.4,57.2,29.98,NE,37,7.0,10.0,55,0.00,,,0.00,925,Wunderground v.1.15,2013-08-13 19:47:00,
2013-08-13 12:53:00,74.4,57.2,29.99,NE,37,7.0,7.0,55,0.00,,,0.00,930,Wunderground v.1.15,2013-08-13 19:53:00,
2013-08-13 12:58:00,74.5,56.8,29.98,NE,36,6.0,9.0,54,0.00,,,0.00,933,Wunderground v.1.15,2013-08-13 19:58:00,
2013-08-13 13:04:00,74.7,56.9,29.98,North,349,6.0,6.0,54,0.00,,,0.00,939,Wunderground v.1.15,2013-08-13 20:04:00,
2013-08-13 13:10:00,75.2,56.9,29.98,NE,35,4.0,9.0,53,0.00,,,0.00,940,Wunderground v.1.15,2013-08-13 20:10:00,
2013-08-13 13:16:00,75.5,56.1,29.98,NE,41,5.0,8.0,51,0.00,,,0.00,942,Wunderground v.1.15,2013-08-13 20:16:00,
2013-08-13 13:21:00,76.0,56.0,29.98,NNW,346,5.0,5.0,50,0.00,,,0.00,942,Wunderground v.1.15,2013-08-13 20:21:00,
2013-08-13 13:23:00,76.1,56.1,29.98,North,5,5.0,5.0,50,0.00,,,0.00,942,Wunderground v.1.15,2013-08-13 20:23:00,
2013-08-13 13:28:00,76.6,56.6,29.98,NNW,344,6.0,7.0,50,0.00,,,0.00,944,Wunderground v.1.15,2013-08-13 20:28:00,
2013-08-13 13:33:00,76.9,55.7,29.98,NE,40,6.0,6.0,48,0.00,,,0.00,944,Wunderground v.1.15,2013-08-13 20:33:00,
2013-08-13 13:39:00,76.9,55.7,29.98,NNE,30,6.0,9.0,48,0.00,,,0.00,942,Wunderground v.1.15,2013-08-13 20:39:00,
2013-08-13 13:44:00,77.1,55.3,29.98,North,360,5.0,8.0,47,0.00,,,0.00,940,Wunderground v.1.15,2013-08-13 20:44:00,
2013-08-13 13:49:00,77.7,56.4,29.98,NNE,26,5.0,8.0,48,0.00,,,0.00,944,Wunderground v.1.15,2013-08-13 20:49:00,
2013-08-13 13:55:00,78.1,55.0,29.98,NNE,20,5.0,10.0,45,0.00,,,0.00,940,Wunderground v.1.15,2013-08-13 20:55:00,
2013-08-13 14:00:00,78.4,55.3,29.98,NNE,27,7.0,10.0,45,0.00,,,0.00,935,Wunderground v.1.15,2013-08-13 21:00:00,
2013-08-13 14:06:00,78.9,55.8,29.97,NNE,24,6.0,10.0,45,0.00,,,0.00,933,Wunderground v.1.15,2013-08-13 21:06:00,
2013-08-13 14:11:00,78.8,56.9,29.97,North,360,7.0,8.0,47,0.00,,,0.00,928,Wunderground v.1.15,2013-08-13 21:11:00,
2013-08-13 14:17:00,78.9,57.0,29.97,NE,37,7.0,8.0,47,0.00,,,0.00,923,Wunderground v.1.15,2013-08-13 21:17:00,
2013-08-13 14:22:00,79.0,56.5,29.97,NE,46,8.0,9.0,46,0.00,,,0.00,919,Wunderground v.1.15,2013-08-13 21:22:00,
2013-08-13 14:27:00,78.8,56.9,29.97,NNE,32,9.0,10.0,47,0.00,,,0.00,916,Wunderground v.1.15,2013-08-13 21:27:00,
2013-08-13 14:33:00,79.0,56.5,29.97,NNW,331,7.0,9.0,46,0.00,,,0.00,907,Wunderground v.1.15,2013-08-13 21:33:00,
2013-08-13 14:38:00,79.5,56.3,29.97,North,355,8.0,11.0,45,0.00,,,0.00,902,Wunderground v.1.15,2013-08-13 21:38:00,
2013-08-13 14:44:00,79.5,56.3,29.96,NNE,20,8.0,13.0,45,0.00,,,0.00,895,Wunderground v.1.15,2013-08-13 21:44:00,
2013-08-13 14:50:00,79.5,55.0,29.96,NNE,19,9.0,16.0,43,0.00,,,0.00,891,Wunderground v.1.15,2013-08-13 21:50:00,
2013-08-13 14:55:00,79.6,54.5,29.96,NNW,339,8.0,11.0,42,0.00,,,0.00,884,Wunderground v.1.15,2013-08-13 21:55:00,
2013-08-13 15:01:00,79.6,53.8,29.96,NNE,22,8.0,9.0,41,0.00,,,0.00,875,Wunderground v.1.15,2013-08-13 22:01:00,
2013-08-13 15:06:00,79.5,53.1,29.96,NNE,18,9.0,10.0,40,0.00,,,0.00,868,Wunderground v.1.15,2013-08-13 22:06:00,
2013-08-13 15:11:00,79.7,53.9,29.96,NNW,335,7.0,7.0,41,0.00,,,0.00,858,Wunderground v.1.15,2013-08-13 22:11:00,
2013-08-13 15:17:00,79.7,54.6,29.96,NNE,24,7.0,13.0,42,0.00,,,0.00,849,Wunderground v.1.15,2013-08-13 22:17:00,
2013-08-13 15:23:00,79.9,55.4,29.95,NNE,30,9.0,12.0,43,0.00,,,0.00,837,Wunderground v.1.15,2013-08-13 22:23:00,
2013-08-13 15:27:00,80.0,54.8,29.96,North,5,8.0,12.0,42,0.00,,,0.00,831,Wunderground v.1.15,2013-08-13 22:27:00,
2013-08-13 15:33:00,80.2,55.7,29.95,North,11,8.0,9.0,43,0.00,,,0.00,817,Wunderground v.1.15,2013-08-13 22:33:00,
2013-08-13 15:39:00,80.3,56.4,29.95,NNW,337,7.0,12.0,44,0.00,,,0.00,805,Wunderground v.1.15,2013-08-13 22:39:00,
2013-08-13 15:44:00,80.4,56.5,29.95,NNW,338,8.0,8.0,44,0.00,,,0.00,796,Wunderground v.1.15,2013-08-13 22:44:00,
2013-08-13 15:48:00,80.7,56.8,29.95,North,5,7.0,10.0,44,0.00,,,0.00,784,Wunderground v.1.15,2013-08-13 22:48:00,
2013-08-13 15:54:00,80.5,56.6,29.95,NE,40,8.0,11.0,44,0.00,,,0.00,773,Wunderground v.1.15,2013-08-13 22:54:00,
2013-08-13 16:00:00,79.9,56.7,29.95,NNE,18,9.0,11.0,45,0.00,,,0.00,759,Wunderground v.1.15,2013-08-13 23:00:00,
2013-08-13 16:06:00,79.5,55.7,29.95,NNE,32,8.0,11.0,44,0.00,,,0.00,744,Wunderground v.1.15,2013-08-13 23:06:00,
2013-08-13 16:12:00,79.1,55.9,29.95,North,11,9.0,10.0,45,0.00,,,0.00,728,Wunderground v.1.15,2013-08-13 23:12:00,
2013-08-13 16:17:00,78.8,55.7,29.95,NNE,32,10.0,13.0,45,0.00,,,0.00,717,Wunderground v.1.15,2013-08-13 23:17:00,
2013-08-13 16:22:00,78.5,57.2,29.95,NNE,26,9.0,11.0,48,0.00,,,0.00,703,Wunderground v.1.15,2013-08-13 23:22:00,
2013-08-13 16:28:00,78.5,57.2,29.95,NNE,33,9.0,14.0,48,0.00,,,0.00,687,Wunderground v.1.15,2013-08-13 23:28:00,
2013-08-13 16:33:00,78.0,57.3,29.95,NE,39,10.0,10.0,49,0.00,,,0.00,673,Wunderground v.1.15,2013-08-13 23:33:00,
2013-08-13 16:38:00,77.7,57.6,29.95,North,355,10.0,12.0,50,0.00,,,0.00,659,Wunderground v.1.15,2013-08-13 23:38:00,
2013-08-13 16:43:00,77.7,57.0,29.95,NE,35,9.0,10.0,49,0.00,,,0.00,647,Wunderground v.1.15,2013-08-13 23:43:00,
2013-08-13 16:49:00,77.6,56.9,29.95,NNE,32,8.0,11.0,49,0.00,,,0.00,629,Wunderground v.1.15,2013-08-13 23:49:00,
2013-08-13 16:55:00,77.3,57.2,29.95,North,355,9.0,12.0,50,0.00,,,0.00,612,Wunderground v.1.15,2013-08-13 23:55:00,
2013-08-13 17:00:00,76.9,56.8,29.95,NNE,20,10.0,14.0,50,0.00,,,0.00,603,Wunderground v.1.15,2013-08-14 00:00:00,
2013-08-13 17:05:00,76.2,56.2,29.95,NNE,31,10.0,13.0,50,0.00,,,0.00,580,Wunderground v.1.15,2013-08-14 00:05:00,
2013-08-13 17:11:00,75.6,56.2,29.95,North,5,9.0,9.0,51,0.00,,,0.00,566,Wunderground v.1.15,2013-08-14 00:11:00,
2013-08-13 17:16:00,75.6,55.1,29.95,North,360,8.0,13.0,49,0.00,,,0.00,548,Wunderground v.1.15,2013-08-14 00:16:00,
2013-08-13 17:22:00,75.5,55.0,29.95,NNE,32,8.0,10.0,49,0.00,,,0.00,531,Wunderground v.1.15,2013-08-14 00:22:00,
2013-08-13 17:27:00,75.2,54.7,29.95,NNE,26,8.0,11.0,49,0.00,,,0.00,513,Wunderground v.1.15,2013-08-14 00:27:00,
2013-08-13 17:32:00,74.9,55.0,29.95,NNE,23,8.0,9.0,50,0.00,,,0.00,497,Wunderground v.1.15,2013-08-14 00:32:00,
2013-08-13 17:38:00,74.8,54.9,29.95,NNE,32,7.0,10.0,50,0.00,,,0.00,480,Wunderground v.1.15,2013-08-14 00:38:00,
2013-08-13 17:43:00,74.5,55.2,29.95,NE,36,7.0,10.0,51,0.00,,,0.00,461,Wunderground v.1.15,2013-08-14 00:43:00,
2013-08-13 17:49:00,73.9,54.6,29.95,NE,34,8.0,11.0,51,0.00,,,0.00,443,Wunderground v.1.15,2013-08-14 00:49:00,
2013-08-13 17:55:00,73.2,55.6,29.95,NNE,16,8.0,10.0,54,0.00,,,0.00,422,Wunderground v.1.15,2013-08-14 00:55:00,
2013-08-13 18:00:00,72.8,55.2,29.95,NNE,29,7.0,8.0,54,0.00,,,0.00,404,Wunderground v.1.15,2013-08-14 01:00:00,
2013-08-13 18:06:00,72.6,54.0,29.95,NE,36,8.0,10.0,52,0.00,,,0.00,385,Wunderground v.1.15,2013-08-14 01:06:00,
2013-08-13 18:11:00,72.3,53.2,29.95,NNE,32,7.0,9.0,51,0.00,,,0.00,366,Wunderground v.1.15,2013-08-14 01:11:00,
2013-08-13 18:16:00,72.1,53.5,29.95,NNE,19,7.0,9.0,52,0.00,,,0.00,350,Wunderground v.1.15,2013-08-14 01:16:00,
2013-08-13 18:22:00,71.9,53.3,29.95,NNE,18,7.0,9.0,52,0.00,,,0.00,332,Wunderground v.1.15,2013-08-14 01:22:00,
2013-08-13 18:28:00,71.8,52.7,29.95,NNE,17,8.0,10.0,51,0.00,,,0.00,313,Wunderground v.1.15,2013-08-14 01:28:00,
2013-08-13 18:33:00,71.9,52.8,29.94,North,5,7.0,12.0,51,0.00,,,0.00,295,Wunderground v.1.15,2013-08-14 01:33:00,
2013-08-13 18:38:00,71.9,52.2,29.94,NNE,32,8.0,12.0,50,0.00,,,0.00,272,Wunderground v.1.15,2013-08-14 01:38:00,
2013-08-13 18:43:00,71.6,53.0,29.94,NNE,31,8.0,8.0,52,0.00,,,0.00,253,Wunderground v.1.15,2013-08-14 01:43:00,
2013-08-13 18:49:00,71.3,53.8,29.94,NNE,28,6.0,6.0,54,0.00,,,0.00,221,Wunderground v.1.15,2013-08-14 01:49:00,
2013-08-13 18:54:00,71.3,54.3,29.94,NNE,28,3.0,6.0,55,0.00,,,0.00,216,Wunderground v.1.15,2013-08-14 01:54:00,
2013-08-13 18:59:00,71.3,54.8,29.94,NNE,28,1.0,1.0,56,0.00,,,0.00,197,Wunderground v.1.15,2013-08-14 01:59:00,
2013-08-13 19:05:00,71.3,55.8,29.94,North,5,1.0,4.0,58,0.00,,,0.00,176,Wunderground v.1.15,2013-08-14 02:05:00,
2013-08-13 19:10:00,71.0,55.9,29.94,North,360,1.0,1.0,59,0.00,,,0.00,153,Wunderground v.1.15,2013-08-14 02:10:00,
2013-08-13 19:16:00,70.4,55.8,29.94,NNE,22,2.0,4.0,60,0.00,,,0.00,128,Wunderground v.1.15,2013-08-14 02:16:00,
2013-08-13 19:22:00,69.9,55.8,29.95,NNE,22,2.0,2.0,61,0.00,,,0.00,105,Wunderground v.1.15,2013-08-14 02:22:00,
2013-08-13 19:28:00,69.6,56.0,29.95,NNE,16,0.0,2.0,62,0.00,,,0.00,83,Wunderground v.1.15,2013-08-14 02:28:00,
2013-08-13 19:33:00,68.9,56.2,29.95,NW,311,1.0,4.0,64,0.00,,,0.00,63,Wunderground v.1.15,2013-08-14 02:33:00,
2013-08-13 19:38:00,67.8,56.0,29.95,NW,311,2.0,4.0,66,0.00,,,0.00,49,Wunderground v.1.15,2013-08-14 02:38:00,
2013-08-13 19:44:00,66.6,55.3,29.95,NW,326,2.0,3.0,67,0.00,,,0.00,33,Wunderground v.1.15,2013-08-14 02:44:00,
2013-08-13 19:49:00,65.7,55.2,29.95,NW,326,1.0,3.0,69,0.00,,,0.00,21,Wunderground v.1.15,2013-08-14 02:49:00,
2013-08-13 19:55:00,64.9,55.3,29.95,NW,326,0.0,3.0,71,0.00,,,0.00,12,Wunderground v.1.15,2013-08-14 02:55:00,
2013-08-13 20:00:00,64.2,55.0,29.95,NW,325,1.0,1.0,72,0.00,,,0.00,7,Wunderground v.1.15,2013-08-14 03:00:00,
2013-08-13 20:06:00,63.5,54.7,29.95,NW,325,0.0,1.0,73,0.00,,,0.00,0,Wunderground v.1.15,2013-08-14 03:06:00,
2013-08-13 20:11:00,63.1,54.7,29.95,NW,326,0.0,0.0,74,0.00,,,0.00,0,Wunderground v.1.15,2013-08-14 03:11:00,
2013-08-13 20:17:00,62.6,54.9,29.95,NW,325,0.0,0.0,76,0.00,,,0.00,0,Wunderground v.1.15,2013-08-14 03:17:00,
2013-08-13 20:22:00,62.3,55.0,29.95,NW,325,0.0,0.0,77,0.00,,,0.00,0,Wunderground v.1.15,2013-08-14 03:22:00,
2013-08-13 20:27:00,61.9,55.0,29.95,NW,325,0.0,0.0,78,0.00,,,0.00,0,Wunderground v.1.15,2013-08-14 03:27:00,
2013-08-13 20:33:00,61.5,54.9,29.95,NW,325,0.0,0.0,79,0.00,,,0.00,0,Wunderground v.1.15,2013-08-14 03:33:00,
2013-08-13 20:38:00,61.0,54.8,29.95,NW,325,0.0,0.0,80,0.00,,,0.00,0,Wunderground v.1.15,2013-08-14 03:38:00,
2013-08-13 20:44:00,60.6,54.7,29.95,NW,325,0.0,0.0,81,0.00,,,0.00,0,Wunderground v.1.15,2013-08-14 03:44:00,
2013-08-13 20:49:00,60.3,54.8,29.96,NW,325,0.0,0.0,82,0.00,,,0.00,0,Wunderground v.1.15,2013-08-14 03:49:00,
2013-08-13 20:54:00,60.1,54.6,29.96,NW,325,0.0,0.0,82,0.00,,,0.00,0,Wunderground v.1.15,2013-08-14 03:54:00,
2013-08-13 21:00:00,59.9,54.7,29.96,NW,325,0.0,0.0,83,0.00,,,0.00,0,Wunderground v.1.15,2013-08-14 04:00:00,
2013-08-13 21:01:00,59.9,54.7,29.96,NW,325,0.0,0.0,83,0.00,,,0.00,0,Wunderground v.1.15,2013-08-14 04:01:00,
2013-08-13 21:05:00,59.7,54.5,29.96,NW,325,0.0,0.0,83,0.00,,,0.00,0,Wunderground v.1.15,2013-08-14 04:05:00,
2013-08-13 21:06:00,59.7,54.5,29.96,WSW,253,0.0,0.0,83,0.00,,,0.00,0,Wunderground v.1.15,2013-08-14 04:06:00,
2013-08-13 21:09:00,59.6,54.4,29.96,WSW,243,0.0,3.0,83,0.00,,,0.00,0,Wunderground v.1.15,2013-08-14 04:09:00,
2013-08-13 21:14:00,59.5,54.7,29.96,SW,229,1.0,5.0,84,0.00,,,0.00,0,Wunderground v.1.15,2013-08-14 04:14:00,
2013-08-13 21:19:00,59.4,54.6,29.96,SW,231,4.0,7.0,84,0.00,,,0.00,0,Wunderground v.1.15,2013-08-14 04:19:00,
2013-08-13 21:25:00,59.3,54.5,29.96,WSW,239,5.0,9.0,84,0.00,,,0.00,0,Wunderground v.1.15,2013-08-14 04:25:00,
2013-08-13 21:31:00,59.1,54.3,29.97,SW,236,6.0,10.0,84,0.00,,,0.00,0,Wunderground v.1.15,2013-08-14 04:31:00,
2013-08-13 21:36:00,59.0,54.5,29.96,WSW,239,8.0,10.0,85,0.00,,,0.00,0,Wunderground v.1.15,2013-08-14 04:36:00,
2013-08-13 21:42:00,58.7,54.5,29.96,SW,225,8.0,9.0,86,0.00,,,0.00,0,Wunderground v.1.15,2013-08-14 04:42:00,
2013-08-13 21:47:00,58.6,54.4,29.96,SW,227,8.0,9.0,86,0.00,,,0.00,0,Wunderground v.1.15,2013-08-14 04:47:00,
2013-08-13 21:52:00,58.6,54.7,29.96,SW,232,8.0,10.0,87,0.00,,,0.00,0,Wunderground v.1.15,2013-08-14 04:52:00,
2013-08-13 21:58:00,58.6,54.1,29.96,SSW,213,8.0,10.0,85,0.00,,,0.00,0,Wunderground v.1.15,2013-08-14 04:58:00,
2013-08-13 22:03:00,58.8,54.0,29.97,SSW,207,7.0,8.0,84,0.00,,,0.00,0,Wunderground v.1.15,2013-08-14 05:03:00,
2013-08-13 22:09:00,59.1,53.6,29.96,SW,225,6.0,8.0,82,0.00,,,0.00,0,Wunderground v.1.15,2013-08-14 05:09:00,
2013-08-13 22:14:00,59.3,53.1,29.96,SW,228,5.0,10.0,80,0.00,,,0.00,0,Wunderground v.1.15,2013-08-14 05:14:00,
2013-08-13 22:19:00,59.4,52.9,29.96,SW,236,5.0,10.0,79,0.00,,,0.00,0,Wunderground v.1.15,2013-08-14 05:19:00,
2013-08-13 22:25:00,59.5,52.6,29.97,SW,221,5.0,5.0,78,0.00,,,0.00,0,Wunderground v.1.15,2013-08-14 05:25:00,
2013-08-13 22:30:00,59.5,52.6,29.97,SW,232,4.0,4.0,78,0.00,,,0.00,0,Wunderground v.1.15,2013-08-14 05:30:00,
2013-08-13 22:36:00,59.4,52.5,29.97,WSW,258,2.0,4.0,78,0.00,,,0.00,0,Wunderground v.1.15,2013-08-14 05:36:00,
2013-08-13 22:41:00,59.3,52.8,29.97,SW,223,1.0,1.0,79,0.00,,,0.00,0,Wunderground v.1.15,2013-08-14 05:41:00,
2013-08-13 22:46:00,59.0,52.5,29.97,WSW,238,0.0,1.0,79,0.00,,,0.00,0,Wunderground v.1.15,2013-08-14 05:46:00,
2013-08-13 22:52:00,58.8,52.6,29.97,SW,235,0.0,0.0,80,0.00,,,0.00,0,Wunderground v.1.15,2013-08-14 05:52:00,
2013-08-13 22:57:00,58.7,52.5,29.97,SW,228,0.0,1.0,80,0.00,,,0.00,0,Wunderground v.1.15,2013-08-14 05:57:00,
2013-08-13 23:03:00,58.6,52.8,29.97,SW,228,0.0,0.0,81,0.00,,,0.00,0,Wunderground v.1.15,2013-08-14 06:03:00,
2013-08-13 23:08:00,58.6,53.1,29.97,SW,228,0.0,0.0,82,0.00,,,0.00,0,Wunderground v.1.15,2013-08-14 06:08:00,
2013-08-13 23:13:00,58.4,52.9,29.97,SW,228,0.0,0.0,82,0.00,,,0.00,0,Wunderground v.1.15,2013-08-14 06:13:00,
2013-08-13 23:19:00,58.3,52.8,29.97,SW,228,0.0,0.0,82,0.00,,,0.00,0,Wunderground v.1.15,2013-08-14 06:19:00,
2013-08-13 23:24:00,58.2,52.7,29.97,SW,228,0.0,0.0,82,0.00,,,0.00,0,Wunderground v.1.15,2013-08-14 06:24:00,
2013-08-13 23:29:00,58.1,52.6,29.97,SW,219,1.0,4.0,82,0.00,,,0.00,0,Wunderground v.1.15,2013-08-14 06:29:00,
2013-08-13 23:35:00,58.0,52.5,29.97,SW,219,1.0,1.0,82,0.00,,,0.00,0,Wunderground v.1.15,2013-08-14 06:35:00,
2013-08-13 23:41:00,58.0,52.2,29.97,SSW,204,2.0,5.0,81,0.00,,,0.00,0,Wunderground v.1.15,2013-08-14 06:41:00,
2013-08-13 23:46:00,58.1,51.6,29.97,SW,215,4.0,5.0,79,0.00,,,0.00,0,Wunderground v.1.15,2013-08-14 06:46:00,
2013-08-13 23:51:00,58.3,51.8,29.97,SW,218,3.0,4.0,79,0.00,,,0.00,0,Wunderground v.1.15,2013-08-14 06:51:00,
2013-08-13 23:56:00,58.5,51.7,29.97,SW,218,1.0,4.0,78,0.00,,,0.00,0,Wunderground v.1.15,2013-08-14 06:56:00,